sensor_id;sensor_type;location;lat;lon;timestamp;P1;durP1;ratioP1;P2;durP2;ratioP2
13419;SDS011;6781;58.440;15.470;2023-04-24T00:02:38;19.03;;;14.53;;
13419;SDS011;6781;58.440;15.470;2023-04-24T00:05:12;22.07;;;15.40;;
13419;SDS011;6781;58.440;15.470;2023-04-24T00:07:45;20.90;;;15.57;;
13419;SDS011;6781;58.440;15.470;2023-04-24T00:10:17;19.70;;;14.13;;
13419;SDS011;6781;58.440;15.470;2023-04-24T00:12:46;19.23;;;14.10;;
13419;SDS011;6781;58.440;15.470;2023-04-24T00:15:17;20.77;;;15.40;;
13419;SDS011;6781;58.440;15.470;2023-04-24T00:17:44;18.83;;;15.53;;
13419;SDS011;6781;58.440;15.470;2023-04-24T00:20:12;23.97;;;16.40;;
13419;SDS011;6781;58.440;15.470;2023-04-24T00:22:40;20.77;;;15.50;;
13419;SDS011;6781;58.440;15.470;2023-04-24T00:25:07;22.17;;;16.40;;
13419;SDS011;6781;58.440;15.470;2023-04-24T00:27:35;20.83;;;14.83;;
13419;SDS011;6781;58.440;15.470;2023-04-24T00:30:17;22.43;;;16.73;;
13419;SDS011;6781;58.440;15.470;2023-04-24T00:32:46;22.10;;;14.97;;
13419;SDS011;6781;58.440;15.470;2023-04-24T00:35:13;22.43;;;15.27;;
13419;SDS011;6781;58.440;15.470;2023-04-24T00:37:41;19.30;;;14.87;;
13419;SDS011;6781;58.440;15.470;2023-04-24T00:40:08;19.43;;;15.07;;
13419;SDS011;6781;58.440;15.470;2023-04-24T00:42:36;20.23;;;15.40;;
13419;SDS011;6781;58.440;15.470;2023-04-24T00:45:06;20.10;;;14.77;;
13419;SDS011;6781;58.440;15.470;2023-04-24T00:47:37;19.43;;;15.23;;
13419;SDS011;6781;58.440;15.470;2023-04-24T00:50:11;21.50;;;16.33;;
13419;SDS011;6781;58.440;15.470;2023-04-24T00:52:41;20.63;;;15.47;;
13419;SDS011;6781;58.440;15.470;2023-04-24T00:55:09;21.37;;;15.57;;
13419;SDS011;6781;58.440;15.470;2023-04-24T00:57:37;22.17;;;16.50;;
13419;SDS011;6781;58.440;15.470;2023-04-24T01:00:07;21.83;;;15.80;;
13419;SDS011;6781;58.440;15.470;2023-04-24T01:02:37;21.70;;;15.83;;
13419;SDS011;6781;58.440;15.470;2023-04-24T01:05:09;22.37;;;16.13;;
13419;SDS011;6781;58.440;15.470;2023-04-24T01:07:37;24.40;;;15.30;;
13419;SDS011;6781;58.440;15.470;2023-04-24T01:10:06;23.13;;;16.93;;
13419;SDS011;6781;58.440;15.470;2023-04-24T01:12:35;24.23;;;16.50;;
13419;SDS011;6781;58.440;15.470;2023-04-24T01:15:04;24.30;;;17.13;;
13419;SDS011;6781;58.440;15.470;2023-04-24T01:17:38;20.80;;;15.90;;
13419;SDS011;6781;58.440;15.470;2023-04-24T01:20:06;22.00;;;16.73;;
13419;SDS011;6781;58.440;15.470;2023-04-24T01:22:44;21.80;;;16.60;;
13419;SDS011;6781;58.440;15.470;2023-04-24T01:25:22;23.07;;;17.27;;
13419;SDS011;6781;58.440;15.470;2023-04-24T01:27:54;24.70;;;18.27;;
13419;SDS011;6781;58.440;15.470;2023-04-24T01:30:25;22.43;;;16.63;;
13419;SDS011;6781;58.440;15.470;2023-04-24T01:32:55;24.10;;;16.93;;
13419;SDS011;6781;58.440;15.470;2023-04-24T01:35:28;20.40;;;15.83;;
13419;SDS011;6781;58.440;15.470;2023-04-24T01:41:00;20.03;;;16.03;;
13419;SDS011;6781;58.440;15.470;2023-04-24T01:43:29;22.83;;;17.30;;
13419;SDS011;6781;58.440;15.470;2023-04-24T01:45:58;24.37;;;16.13;;
13419;SDS011;6781;58.440;15.470;2023-04-24T01:48:25;19.57;;;15.90;;
13419;SDS011;6781;58.440;15.470;2023-04-24T01:50:54;20.20;;;15.67;;
13419;SDS011;6781;58.440;15.470;2023-04-24T01:53:23;21.53;;;15.10;;
13419;SDS011;6781;58.440;15.470;2023-04-24T01:55:52;21.80;;;15.87;;
13419;SDS011;6781;58.440;15.470;2023-04-24T01:58:23;19.83;;;15.53;;
13419;SDS011;6781;58.440;15.470;2023-04-24T02:00:52;19.43;;;15.80;;
13419;SDS011;6781;58.440;15.470;2023-04-24T02:03:28;18.80;;;14.03;;
13419;SDS011;6781;58.440;15.470;2023-04-24T02:08:33;18.80;;;14.83;;
13419;SDS011;6781;58.440;15.470;2023-04-24T02:11:05;20.13;;;14.50;;
13419;SDS011;6781;58.440;15.470;2023-04-24T02:13:34;20.20;;;14.43;;
13419;SDS011;6781;58.440;15.470;2023-04-24T02:16:27;23.77;;;15.10;;
13419;SDS011;6781;58.440;15.470;2023-04-24T02:19:10;21.80;;;15.47;;
13419;SDS011;6781;58.440;15.470;2023-04-24T02:21:44;23.67;;;16.37;;
13419;SDS011;6781;58.440;15.470;2023-04-24T02:24:11;19.80;;;15.87;;
13419;SDS011;6781;58.440;15.470;2023-04-24T02:26:39;20.23;;;15.77;;
13419;SDS011;6781;58.440;15.470;2023-04-24T02:29:10;20.90;;;15.97;;
13419;SDS011;6781;58.440;15.470;2023-04-24T02:31:42;18.97;;;14.93;;
13419;SDS011;6781;58.440;15.470;2023-04-24T02:34:18;22.70;;;16.10;;
13419;SDS011;6781;58.440;15.470;2023-04-24T02:39:46;20.37;;;15.33;;
13419;SDS011;6781;58.440;15.470;2023-04-24T02:42:14;21.07;;;15.40;;
13419;SDS011;6781;58.440;15.470;2023-04-24T02:44:45;29.80;;;16.23;;
13419;SDS011;6781;58.440;15.470;2023-04-24T02:47:19;20.37;;;16.00;;
13419;SDS011;6781;58.440;15.470;2023-04-24T02:49:47;21.83;;;15.20;;
13419;SDS011;6781;58.440;15.470;2023-04-24T02:52:14;19.43;;;15.03;;
13419;SDS011;6781;58.440;15.470;2023-04-24T02:54:43;21.17;;;15.27;;
13419;SDS011;6781;58.440;15.470;2023-04-24T02:57:16;20.03;;;15.40;;
13419;SDS011;6781;58.440;15.470;2023-04-24T02:59:51;19.40;;;15.73;;
13419;SDS011;6781;58.440;15.470;2023-04-24T03:02:20;25.10;;;16.10;;
13419;SDS011;6781;58.440;15.470;2023-04-24T03:04:48;20.83;;;16.00;;
13419;SDS011;6781;58.440;15.470;2023-04-24T03:07:18;23.13;;;17.43;;
13419;SDS011;6781;58.440;15.470;2023-04-24T03:09:46;19.57;;;15.90;;
13419;SDS011;6781;58.440;15.470;2023-04-24T03:12:13;18.77;;;15.00;;
13419;SDS011;6781;58.440;15.470;2023-04-24T03:14:51;25.97;;;16.47;;
13419;SDS011;6781;58.440;15.470;2023-04-24T03:17:20;21.90;;;16.10;;
13419;SDS011;6781;58.440;15.470;2023-04-24T03:19:51;22.63;;;16.53;;
13419;SDS011;6781;58.440;15.470;2023-04-24T03:22:22;19.37;;;15.87;;
13419;SDS011;6781;58.440;15.470;2023-04-24T03:24:49;20.50;;;15.27;;
13419;SDS011;6781;58.440;15.470;2023-04-24T03:27:17;24.07;;;17.10;;
13419;SDS011;6781;58.440;15.470;2023-04-24T03:29:44;20.73;;;16.27;;
13419;SDS011;6781;58.440;15.470;2023-04-24T03:35:12;24.70;;;16.87;;
13419;SDS011;6781;58.440;15.470;2023-04-24T03:37:57;19.97;;;15.47;;
13419;SDS011;6781;58.440;15.470;2023-04-24T03:40:25;24.60;;;17.70;;
13419;SDS011;6781;58.440;15.470;2023-04-24T03:42:54;23.70;;;16.43;;
13419;SDS011;6781;58.440;15.470;2023-04-24T03:45:23;30.73;;;17.00;;
13419;SDS011;6781;58.440;15.470;2023-04-24T03:48:09;24.00;;;16.07;;
13419;SDS011;6781;58.440;15.470;2023-04-24T03:50:57;24.80;;;16.37;;
13419;SDS011;6781;58.440;15.470;2023-04-24T03:53:37;24.63;;;16.97;;
13419;SDS011;6781;58.440;15.470;2023-04-24T03:56:12;21.57;;;16.50;;
13419;SDS011;6781;58.440;15.470;2023-04-24T03:58:46;24.77;;;17.90;;
13419;SDS011;6781;58.440;15.470;2023-04-24T04:01:36;33.27;;;17.73;;
13419;SDS011;6781;58.440;15.470;2023-04-24T04:07:50;27.70;;;17.80;;
13419;SDS011;6781;58.440;15.470;2023-04-24T04:10:33;31.80;;;18.63;;
13419;SDS011;6781;58.440;15.470;2023-04-24T04:13:03;26.63;;;18.47;;
13419;SDS011;6781;58.440;15.470;2023-04-24T04:15:41;22.97;;;16.90;;
13419;SDS011;6781;58.440;15.470;2023-04-24T04:18:28;43.40;;;18.13;;
13419;SDS011;6781;58.440;15.470;2023-04-24T04:21:04;27.83;;;18.27;;
13419;SDS011;6781;58.440;15.470;2023-04-24T04:23:52;21.03;;;16.73;;
13419;SDS011;6781;58.440;15.470;2023-04-24T04:26:56;41.93;;;17.60;;
13419;SDS011;6781;58.440;15.470;2023-04-24T04:36:22;42.57;;;19.47;;
13419;SDS011;6781;58.440;15.470;2023-04-24T04:38:57;25.67;;;18.83;;
13419;SDS011;6781;58.440;15.470;2023-04-24T04:41:35;29.33;;;19.40;;
13419;SDS011;6781;58.440;15.470;2023-04-24T04:44:38;30.37;;;18.30;;
13419;SDS011;6781;58.440;15.470;2023-04-24T04:47:46;47.90;;;19.03;;
13419;SDS011;6781;58.440;15.470;2023-04-24T04:51:02;29.57;;;20.67;;
13419;SDS011;6781;58.440;15.470;2023-04-24T04:54:01;24.37;;;17.43;;
13419;SDS011;6781;58.440;15.470;2023-04-24T04:58:31;28.03;;;20.83;;
13419;SDS011;6781;58.440;15.470;2023-04-24T05:03:20;37.97;;;19.07;;
13419;SDS011;6781;58.440;15.470;2023-04-24T05:15:41;28.73;;;20.47;;
13419;SDS011;6781;58.440;15.470;2023-04-24T05:18:11;23.83;;;17.83;;
13419;SDS011;6781;58.440;15.470;2023-04-24T05:21:18;24.87;;;18.33;;
13419;SDS011;6781;58.440;15.470;2023-04-24T05:23:49;23.37;;;17.70;;
13419;SDS011;6781;58.440;15.470;2023-04-24T05:26:22;24.27;;;18.90;;
13419;SDS011;6781;58.440;15.470;2023-04-24T05:28:57;30.90;;;20.53;;
13419;SDS011;6781;58.440;15.470;2023-04-24T05:31:25;24.10;;;18.03;;
13419;SDS011;6781;58.440;15.470;2023-04-24T05:33:56;25.37;;;18.97;;
13419;SDS011;6781;58.440;15.470;2023-04-24T05:36:22;26.77;;;19.77;;
13419;SDS011;6781;58.440;15.470;2023-04-24T05:38:50;26.90;;;19.20;;
13419;SDS011;6781;58.440;15.470;2023-04-24T05:41:21;27.17;;;20.10;;
13419;SDS011;6781;58.440;15.470;2023-04-24T05:43:48;24.17;;;18.70;;
13419;SDS011;6781;58.440;15.470;2023-04-24T05:46:16;24.60;;;18.87;;
13419;SDS011;6781;58.440;15.470;2023-04-24T05:48:44;25.63;;;19.30;;
13419;SDS011;6781;58.440;15.470;2023-04-24T05:51:12;22.50;;;18.27;;
13419;SDS011;6781;58.440;15.470;2023-04-24T05:53:39;24.33;;;18.87;;
13419;SDS011;6781;58.440;15.470;2023-04-24T05:56:06;26.05;;;19.63;;
13419;SDS011;6781;58.440;15.470;2023-04-24T05:58:33;25.87;;;19.20;;
13419;SDS011;6781;58.440;15.470;2023-04-24T06:01:01;24.03;;;18.37;;
13419;SDS011;6781;58.440;15.470;2023-04-24T06:03:29;25.75;;;19.65;;
13419;SDS011;6781;58.440;15.470;2023-04-24T06:05:57;29.20;;;20.77;;
13419;SDS011;6781;58.440;15.470;2023-04-24T06:08:24;21.13;;;17.63;;
13419;SDS011;6781;58.440;15.470;2023-04-24T06:10:51;26.55;;;19.83;;
13419;SDS011;6781;58.440;15.470;2023-04-24T06:13:18;27.92;;;20.92;;
13419;SDS011;6781;58.440;15.470;2023-04-24T06:15:45;30.63;;;21.45;;
13419;SDS011;6781;58.440;15.470;2023-04-24T06:18:12;27.40;;;20.60;;
13419;SDS011;6781;58.440;15.470;2023-04-24T06:20:40;25.88;;;20.02;;
13419;SDS011;6781;58.440;15.470;2023-04-24T06:23:08;24.48;;;18.35;;
13419;SDS011;6781;58.440;15.470;2023-04-24T06:25:35;25.23;;;19.10;;
13419;SDS011;6781;58.440;15.470;2023-04-24T06:28:02;25.05;;;19.80;;
13419;SDS011;6781;58.440;15.470;2023-04-24T06:30:30;23.85;;;17.35;;
13419;SDS011;6781;58.440;15.470;2023-04-24T06:32:57;26.02;;;19.55;;
13419;SDS011;6781;58.440;15.470;2023-04-24T06:35:24;23.75;;;19.83;;
13419;SDS011;6781;58.440;15.470;2023-04-24T06:37:51;25.70;;;20.02;;
13419;SDS011;6781;58.440;15.470;2023-04-24T06:40:19;27.17;;;20.48;;
13419;SDS011;6781;58.440;15.470;2023-04-24T06:42:46;28.50;;;21.67;;
13419;SDS011;6781;58.440;15.470;2023-04-24T06:45:14;26.20;;;20.70;;
13419;SDS011;6781;58.440;15.470;2023-04-24T06:47:41;27.20;;;18.98;;
13419;SDS011;6781;58.440;15.470;2023-04-24T06:50:08;26.92;;;21.65;;
13419;SDS011;6781;58.440;15.470;2023-04-24T06:52:36;27.95;;;19.77;;
13419;SDS011;6781;58.440;15.470;2023-04-24T06:55:03;24.35;;;18.67;;
13419;SDS011;6781;58.440;15.470;2023-04-24T06:57:33;23.85;;;19.00;;
13419;SDS011;6781;58.440;15.470;2023-04-24T07:00:00;25.00;;;20.42;;
13419;SDS011;6781;58.440;15.470;2023-04-24T07:02:28;25.83;;;20.13;;
13419;SDS011;6781;58.440;15.470;2023-04-24T07:04:55;26.63;;;20.90;;
13419;SDS011;6781;58.440;15.470;2023-04-24T07:07:22;25.15;;;20.60;;
13419;SDS011;6781;58.440;15.470;2023-04-24T07:09:49;28.92;;;21.92;;
13419;SDS011;6781;58.440;15.470;2023-04-24T07:12:17;24.13;;;19.50;;
13419;SDS011;6781;58.440;15.470;2023-04-24T07:14:47;26.17;;;20.83;;
13419;SDS011;6781;58.440;15.470;2023-04-24T07:17:15;27.02;;;20.63;;
13419;SDS011;6781;58.440;15.470;2023-04-24T07:19:42;27.80;;;21.63;;
13419;SDS011;6781;58.440;15.470;2023-04-24T07:22:09;26.48;;;20.48;;
13419;SDS011;6781;58.440;15.470;2023-04-24T07:24:41;26.30;;;19.65;;
13419;SDS011;6781;58.440;15.470;2023-04-24T07:27:09;27.33;;;20.63;;
13419;SDS011;6781;58.440;15.470;2023-04-24T07:29:36;26.23;;;19.88;;
13419;SDS011;6781;58.440;15.470;2023-04-24T07:32:06;29.90;;;21.83;;
13419;SDS011;6781;58.440;15.470;2023-04-24T07:34:33;26.67;;;21.30;;
13419;SDS011;6781;58.440;15.470;2023-04-24T07:37:00;25.60;;;21.23;;
13419;SDS011;6781;58.440;15.470;2023-04-24T07:39:28;27.15;;;21.67;;
13419;SDS011;6781;58.440;15.470;2023-04-24T07:41:55;30.02;;;22.35;;
13419;SDS011;6781;58.440;15.470;2023-04-24T07:44:23;29.65;;;23.42;;
13419;SDS011;6781;58.440;15.470;2023-04-24T07:46:53;31.00;;;21.50;;
13419;SDS011;6781;58.440;15.470;2023-04-24T07:49:23;27.88;;;21.88;;
13419;SDS011;6781;58.440;15.470;2023-04-24T07:51:50;28.20;;;21.40;;
13419;SDS011;6781;58.440;15.470;2023-04-24T07:54:17;24.90;;;20.60;;
13419;SDS011;6781;58.440;15.470;2023-04-24T07:56:45;27.38;;;21.60;;
13419;SDS011;6781;58.440;15.470;2023-04-24T07:59:12;27.38;;;21.25;;
13419;SDS011;6781;58.440;15.470;2023-04-24T08:01:39;28.30;;;21.75;;
13419;SDS011;6781;58.440;15.470;2023-04-24T08:04:07;29.75;;;22.48;;
13419;SDS011;6781;58.440;15.470;2023-04-24T08:06:36;24.10;;;19.20;;
13419;SDS011;6781;58.440;15.470;2023-04-24T08:09:03;26.98;;;20.52;;
13419;SDS011;6781;58.440;15.470;2023-04-24T08:11:30;28.35;;;21.67;;
13419;SDS011;6781;58.440;15.470;2023-04-24T08:13:58;25.17;;;20.33;;
13419;SDS011;6781;58.440;15.470;2023-04-24T08:16:28;29.88;;;20.83;;
13419;SDS011;6781;58.440;15.470;2023-04-24T08:18:56;31.00;;;22.45;;
13419;SDS011;6781;58.440;15.470;2023-04-24T08:21:31;29.33;;;22.08;;
13419;SDS011;6781;58.440;15.470;2023-04-24T08:24:05;29.55;;;23.00;;
13419;SDS011;6781;58.440;15.470;2023-04-24T08:26:58;26.00;;;20.23;;
13419;SDS011;6781;58.440;15.470;2023-04-24T08:29:30;30.80;;;22.45;;
13419;SDS011;6781;58.440;15.470;2023-04-24T08:31:59;32.88;;;22.38;;
13419;SDS011;6781;58.440;15.470;2023-04-24T08:34:34;26.38;;;22.35;;
13419;SDS011;6781;58.440;15.470;2023-04-24T08:37:26;28.52;;;22.80;;
13419;SDS011;6781;58.440;15.470;2023-04-24T08:40:12;28.65;;;22.27;;
13419;SDS011;6781;58.440;15.470;2023-04-24T08:42:43;29.52;;;23.05;;
13419;SDS011;6781;58.440;15.470;2023-04-24T08:45:25;28.20;;;22.08;;
13419;SDS011;6781;58.440;15.470;2023-04-24T08:47:53;28.60;;;20.75;;
13419;SDS011;6781;58.440;15.470;2023-04-24T08:50:20;25.30;;;20.13;;
13419;SDS011;6781;58.440;15.470;2023-04-24T08:52:51;24.48;;;20.42;;
13419;SDS011;6781;58.440;15.470;2023-04-24T08:55:23;24.63;;;19.98;;
13419;SDS011;6781;58.440;15.470;2023-04-24T08:58:32;25.33;;;20.45;;
13419;SDS011;6781;58.440;15.470;2023-04-24T09:04:27;25.58;;;19.92;;
13419;SDS011;6781;58.440;15.470;2023-04-24T09:10:27;24.27;;;19.75;;
13419;SDS011;6781;58.440;15.470;2023-04-24T09:13:05;22.25;;;19.05;;
13419;SDS011;6781;58.440;15.470;2023-04-24T09:16:26;27.17;;;19.38;;
13419;SDS011;6781;58.440;15.470;2023-04-24T09:19:07;24.13;;;19.88;;
13419;SDS011;6781;58.440;15.470;2023-04-24T09:22:16;23.02;;;19.38;;
13419;SDS011;6781;58.440;15.470;2023-04-24T09:25:10;24.35;;;20.00;;
13419;SDS011;6781;58.440;15.470;2023-04-24T09:34:31;27.13;;;21.55;;
13419;SDS011;6781;58.440;15.470;2023-04-24T09:37:34;26.80;;;20.58;;
13419;SDS011;6781;58.440;15.470;2023-04-24T09:40:09;26.50;;;20.60;;
13419;SDS011;6781;58.440;15.470;2023-04-24T09:42:38;26.27;;;21.70;;
13419;SDS011;6781;58.440;15.470;2023-04-24T09:45:11;27.63;;;21.25;;
13419;SDS011;6781;58.440;15.470;2023-04-24T09:47:40;23.77;;;20.75;;
13419;SDS011;6781;58.440;15.470;2023-04-24T09:50:15;25.88;;;22.13;;
13419;SDS011;6781;58.440;15.470;2023-04-24T09:52:58;27.35;;;20.33;;
13419;SDS011;6781;58.440;15.470;2023-04-24T09:55:35;24.73;;;20.80;;
13419;SDS011;6781;58.440;15.470;2023-04-24T09:58:36;23.30;;;18.40;;
13419;SDS011;6781;58.440;15.470;2023-04-24T10:01:29;25.42;;;19.35;;
13419;SDS011;6781;58.440;15.470;2023-04-24T10:07:04;26.02;;;19.67;;
13419;SDS011;6781;58.440;15.470;2023-04-24T10:09:40;24.08;;;19.58;;
13419;SDS011;6781;58.440;15.470;2023-04-24T10:12:10;23.95;;;19.92;;
13419;SDS011;6781;58.440;15.470;2023-04-24T10:14:40;21.25;;;17.92;;
13419;SDS011;6781;58.440;15.470;2023-04-24T10:17:08;21.73;;;18.23;;
13419;SDS011;6781;58.440;15.470;2023-04-24T10:19:39;21.45;;;19.13;;
13419;SDS011;6781;58.440;15.470;2023-04-24T10:22:12;23.20;;;18.95;;
13419;SDS011;6781;58.440;15.470;2023-04-24T10:24:58;22.23;;;18.52;;
13419;SDS011;6781;58.440;15.470;2023-04-24T10:27:27;20.90;;;18.40;;
13419;SDS011;6781;58.440;15.470;2023-04-24T10:30:16;22.52;;;18.83;;
13419;SDS011;6781;58.440;15.470;2023-04-24T10:32:47;21.05;;;17.25;;
13419;SDS011;6781;58.440;15.470;2023-04-24T10:35:25;25.83;;;19.88;;
13419;SDS011;6781;58.440;15.470;2023-04-24T10:37:54;20.92;;;18.65;;
13419;SDS011;6781;58.440;15.470;2023-04-24T10:40:28;22.10;;;19.10;;
13419;SDS011;6781;58.440;15.470;2023-04-24T10:42:57;24.27;;;19.38;;
13419;SDS011;6781;58.440;15.470;2023-04-24T10:45:26;21.23;;;18.30;;
13419;SDS011;6781;58.440;15.470;2023-04-24T10:47:58;21.52;;;18.48;;
13419;SDS011;6781;58.440;15.470;2023-04-24T10:50:29;21.15;;;18.02;;
13419;SDS011;6781;58.440;15.470;2023-04-24T10:53:12;24.13;;;19.00;;
13419;SDS011;6781;58.440;15.470;2023-04-24T10:55:44;21.50;;;18.05;;
13419;SDS011;6781;58.440;15.470;2023-04-24T10:58:18;20.25;;;17.50;;
13419;SDS011;6781;58.440;15.470;2023-04-24T11:00:57;21.35;;;18.52;;
13419;SDS011;6781;58.440;15.470;2023-04-24T11:03:39;24.38;;;18.83;;
13419;SDS011;6781;58.440;15.470;2023-04-24T11:06:34;20.65;;;18.08;;
13419;SDS011;6781;58.440;15.470;2023-04-24T11:09:06;20.48;;;16.45;;
13419;SDS011;6781;58.440;15.470;2023-04-24T11:11:48;23.13;;;18.15;;
13419;SDS011;6781;58.440;15.470;2023-04-24T11:14:22;19.55;;;16.45;;
13419;SDS011;6781;58.440;15.470;2023-04-24T11:16:54;20.52;;;16.58;;
13419;SDS011;6781;58.440;15.470;2023-04-24T11:19:39;21.02;;;18.20;;
13419;SDS011;6781;58.440;15.470;2023-04-24T11:22:23;19.30;;;15.90;;
13419;SDS011;6781;58.440;15.470;2023-04-24T11:24:55;19.08;;;15.80;;
13419;SDS011;6781;58.440;15.470;2023-04-24T11:31:14;18.15;;;16.15;;
13419;SDS011;6781;58.440;15.470;2023-04-24T11:34:07;16.83;;;15.02;;
13419;SDS011;6781;58.440;15.470;2023-04-24T11:37:00;18.58;;;15.65;;
13419;SDS011;6781;58.440;15.470;2023-04-24T11:39:31;18.10;;;16.20;;
13419;SDS011;6781;58.440;15.470;2023-04-24T11:42:05;19.52;;;15.35;;
13419;SDS011;6781;58.440;15.470;2023-04-24T11:44:33;19.33;;;17.20;;
13419;SDS011;6781;58.440;15.470;2023-04-24T11:47:05;20.50;;;16.98;;
13419;SDS011;6781;58.440;15.470;2023-04-24T11:49:33;18.08;;;15.73;;
13419;SDS011;6781;58.440;15.470;2023-04-24T11:52:11;19.67;;;15.55;;
13419;SDS011;6781;58.440;15.470;2023-04-24T11:55:12;19.77;;;17.00;;
13419;SDS011;6781;58.440;15.470;2023-04-24T11:57:56;18.30;;;15.40;;
13419;SDS011;6781;58.440;15.470;2023-04-24T12:00:42;18.17;;;16.20;;
13419;SDS011;6781;58.440;15.470;2023-04-24T12:03:11;17.85;;;15.02;;
13419;SDS011;6781;58.440;15.470;2023-04-24T12:05:40;19.02;;;15.45;;
13419;SDS011;6781;58.440;15.470;2023-04-24T12:08:15;18.02;;;13.88;;
13419;SDS011;6781;58.440;15.470;2023-04-24T12:11:06;16.52;;;14.20;;
13419;SDS011;6781;58.440;15.470;2023-04-24T12:13:54;17.83;;;15.07;;
13419;SDS011;6781;58.440;15.470;2023-04-24T12:19:28;18.40;;;14.18;;
13419;SDS011;6781;58.440;15.470;2023-04-24T12:22:07;17.45;;;13.98;;
13419;SDS011;6781;58.440;15.470;2023-04-24T12:25:09;18.60;;;15.48;;
13419;SDS011;6781;58.440;15.470;2023-04-24T12:27:43;16.17;;;13.35;;
13419;SDS011;6781;58.440;15.470;2023-04-24T12:30:15;15.60;;;13.38;;
13419;SDS011;6781;58.440;15.470;2023-04-24T12:32:46;14.48;;;12.93;;
13419;SDS011;6781;58.440;15.470;2023-04-24T12:35:20;15.93;;;13.38;;
13419;SDS011;6781;58.440;15.470;2023-04-24T12:37:51;16.27;;;13.23;;
13419;SDS011;6781;58.440;15.470;2023-04-24T12:40:20;17.30;;;13.77;;
13419;SDS011;6781;58.440;15.470;2023-04-24T12:42:56;15.77;;;13.15;;
13419;SDS011;6781;58.440;15.470;2023-04-24T12:46:00;16.77;;;13.00;;
13419;SDS011;6781;58.440;15.470;2023-04-24T12:48:47;15.68;;;12.70;;
13419;SDS011;6781;58.440;15.470;2023-04-24T12:51:16;14.27;;;11.98;;
13419;SDS011;6781;58.440;15.470;2023-04-24T12:53:49;15.63;;;12.75;;
13419;SDS011;6781;58.440;15.470;2023-04-24T12:56:34;15.18;;;12.35;;
13419;SDS011;6781;58.440;15.470;2023-04-24T12:59:33;17.08;;;13.80;;
13419;SDS011;6781;58.440;15.470;2023-04-24T13:02:13;15.40;;;12.45;;
13419;SDS011;6781;58.440;15.470;2023-04-24T13:04:53;16.88;;;12.85;;
13419;SDS011;6781;58.440;15.470;2023-04-24T13:07:21;16.65;;;11.73;;
13419;SDS011;6781;58.440;15.470;2023-04-24T13:09:49;14.02;;;11.20;;
13419;SDS011;6781;58.440;15.470;2023-04-24T13:12:23;13.13;;;11.18;;
13419;SDS011;6781;58.440;15.470;2023-04-24T13:17:43;11.85;;;10.65;;
13419;SDS011;6781;58.440;15.470;2023-04-24T13:20:24;12.50;;;10.35;;
13419;SDS011;6781;58.440;15.470;2023-04-24T13:23:13;11.07;;;9.35;;
13419;SDS011;6781;58.440;15.470;2023-04-24T13:25:44;10.48;;;9.48;;
13419;SDS011;6781;58.440;15.470;2023-04-24T13:28:12;11.13;;;9.90;;
13419;SDS011;6781;58.440;15.470;2023-04-24T13:34:05;10.48;;;9.45;;
13419;SDS011;6781;58.440;15.470;2023-04-24T13:36:48;11.60;;;10.40;;
13419;SDS011;6781;58.440;15.470;2023-04-24T13:39:30;10.20;;;9.20;;
13419;SDS011;6781;58.440;15.470;2023-04-24T13:42:14;10.80;;;9.50;;
13419;SDS011;6781;58.440;15.470;2023-04-24T13:45:06;11.15;;;9.70;;
13419;SDS011;6781;58.440;15.470;2023-04-24T13:48:13;11.95;;;10.30;;
13419;SDS011;6781;58.440;15.470;2023-04-24T13:53:41;11.90;;;10.57;;
13419;SDS011;6781;58.440;15.470;2023-04-24T13:56:10;11.73;;;10.38;;
13419;SDS011;6781;58.440;15.470;2023-04-24T13:59:02;14.45;;;9.57;;
13419;SDS011;6781;58.440;15.470;2023-04-24T14:01:54;11.25;;;10.05;;
13419;SDS011;6781;58.440;15.470;2023-04-24T14:04:36;11.70;;;10.50;;
13419;SDS011;6781;58.440;15.470;2023-04-24T14:07:23;12.80;;;10.98;;
13419;SDS011;6781;58.440;15.470;2023-04-24T14:09:54;13.02;;;10.65;;
13419;SDS011;6781;58.440;15.470;2023-04-24T14:12:28;13.77;;;10.10;;
13419;SDS011;6781;58.440;15.470;2023-04-24T14:15:03;12.43;;;10.38;;
13419;SDS011;6781;58.440;15.470;2023-04-24T14:18:00;13.77;;;10.77;;
13419;SDS011;6781;58.440;15.470;2023-04-24T14:20:28;14.43;;;11.10;;
13419;SDS011;6781;58.440;15.470;2023-04-24T14:23:05;11.55;;;10.35;;
13419;SDS011;6781;58.440;15.470;2023-04-24T14:25:32;10.73;;;9.50;;
13419;SDS011;6781;58.440;15.470;2023-04-24T14:28:05;11.98;;;9.77;;
13419;SDS011;6781;58.440;15.470;2023-04-24T14:30:35;11.43;;;10.23;;
13419;SDS011;6781;58.440;15.470;2023-04-24T14:33:22;12.15;;;10.95;;
13419;SDS011;6781;58.440;15.470;2023-04-24T14:36:01;11.82;;;10.52;;
13419;SDS011;6781;58.440;15.470;2023-04-24T14:38:48;11.27;;;10.10;;
13419;SDS011;6781;58.440;15.470;2023-04-24T14:45:02;12.48;;;10.38;;
13419;SDS011;6781;58.440;15.470;2023-04-24T14:47:57;9.90;;;8.93;;
13419;SDS011;6781;58.440;15.470;2023-04-24T14:50:29;9.75;;;8.73;;
13419;SDS011;6781;58.440;15.470;2023-04-24T14:53:36;9.25;;;8.35;;
13419;SDS011;6781;58.440;15.470;2023-04-24T14:56:03;9.43;;;8.48;;
13419;SDS011;6781;58.440;15.470;2023-04-24T14:58:32;9.25;;;8.27;;
13419;SDS011;6781;58.440;15.470;2023-04-24T15:01:03;10.60;;;9.05;;
13419;SDS011;6781;58.440;15.470;2023-04-24T15:03:34;10.68;;;8.60;;
13419;SDS011;6781;58.440;15.470;2023-04-24T15:06:02;10.73;;;9.63;;
13419;SDS011;6781;58.440;15.470;2023-04-24T15:08:29;10.07;;;8.23;;
13419;SDS011;6781;58.440;15.470;2023-04-24T15:10:57;11.43;;;9.95;;
13419;SDS011;6781;58.440;15.470;2023-04-24T15:13:25;11.48;;;10.30;;
13419;SDS011;6781;58.440;15.470;2023-04-24T15:15:55;14.38;;;11.35;;
13419;SDS011;6781;58.440;15.470;2023-04-24T15:18:23;15.48;;;12.15;;
13419;SDS011;6781;58.440;15.470;2023-04-24T15:20:50;15.23;;;12.35;;
13419;SDS011;6781;58.440;15.470;2023-04-24T15:23:18;18.88;;;12.48;;
13419;SDS011;6781;58.440;15.470;2023-04-24T15:25:48;13.20;;;11.80;;
13419;SDS011;6781;58.440;15.470;2023-04-24T15:28:17;14.75;;;13.13;;
13419;SDS011;6781;58.440;15.470;2023-04-24T15:30:58;13.95;;;11.85;;
13419;SDS011;6781;58.440;15.470;2023-04-24T15:33:26;14.00;;;12.52;;
13419;SDS011;6781;58.440;15.470;2023-04-24T15:35:53;14.02;;;10.60;;
13419;SDS011;6781;58.440;15.470;2023-04-24T15:38:46;16.70;;;14.00;;
13419;SDS011;6781;58.440;15.470;2023-04-24T15:44:30;17.00;;;15.00;;
13419;SDS011;6781;58.440;15.470;2023-04-24T15:47:39;22.77;;;16.40;;
13419;SDS011;6781;58.440;15.470;2023-04-24T15:50:06;20.23;;;15.45;;
13419;SDS011;6781;58.440;15.470;2023-04-24T15:52:49;17.98;;;15.77;;
13419;SDS011;6781;58.440;15.470;2023-04-24T15:55:16;19.92;;;15.45;;
13419;SDS011;6781;58.440;15.470;2023-04-24T15:57:45;21.65;;;15.90;;
13419;SDS011;6781;58.440;15.470;2023-04-24T16:00:19;21.38;;;17.17;;
13419;SDS011;6781;58.440;15.470;2023-04-24T16:02:50;18.85;;;14.13;;
13419;SDS011;6781;58.440;15.470;2023-04-24T16:05:18;21.92;;;15.88;;
13419;SDS011;6781;58.440;15.470;2023-04-24T16:07:47;21.80;;;15.98;;
13419;SDS011;6781;58.440;15.470;2023-04-24T16:10:14;19.33;;;16.55;;
13419;SDS011;6781;58.440;15.470;2023-04-24T16:12:43;21.05;;;15.88;;
13419;SDS011;6781;58.440;15.470;2023-04-24T16:15:14;23.00;;;16.50;;
13419;SDS011;6781;58.440;15.470;2023-04-24T16:17:41;26.48;;;17.08;;
13419;SDS011;6781;58.440;15.470;2023-04-24T16:20:17;21.90;;;16.55;;
13419;SDS011;6781;58.440;15.470;2023-04-24T16:22:54;24.48;;;16.83;;